Aviation Digital Data Service (ADDS)

Output produced by METARs form (2315 UTC 24 May 2015)
found at http://aviationweather.gov/adds/metars/
 
KFNT 242013Z 2420/2518 18006KT P6SM OVC100 
     FM242300 14006KT P6SM OVC080 
     FM250300 19010KT P6SM BKN060 OVC120 
     FM250800 19010KT P6SM SCT080 BKN150 
     FM251400 21017G24KT P6SM BKN080